sensor_id;sensor_type;location;lat;lon;timestamp;pressure;altitude;pressure_sealevel;temperature;humidity
23643;BME280;11998;55.788;37.572;2023-05-24T00:00:56;98675.50;;;94.19;4.96
23643;BME280;11998;55.788;37.572;2023-05-24T00:01:57;98674.88;;;94.20;4.78
23643;BME280;11998;55.788;37.572;2023-05-24T00:02:58;98669.59;;;95.33;4.68
23643;BME280;11998;55.788;37.572;2023-05-24T00:03:58;98671.66;;;94.38;5.03
23643;BME280;11998;55.788;37.572;2023-05-24T00:04:59;98660.84;;;92.99;4.98
23643;BME280;11998;55.788;37.572;2023-05-24T00:06:01;98666.66;;;93.73;5.09
23643;BME280;11998;55.788;37.572;2023-05-24T00:07:02;98664.44;;;94.02;5.00
23643;BME280;11998;55.788;37.572;2023-05-24T00:08:02;98662.22;;;93.64;4.90
23643;BME280;11998;55.788;37.572;2023-05-24T00:09:04;98676.53;;;94.84;4.72
23643;BME280;11998;55.788;37.572;2023-05-24T00:10:05;98681.22;;;95.27;4.75
23643;BME280;11998;55.788;37.572;2023-05-24T00:11:06;98671.59;;;94.57;4.99
23643;BME280;11998;55.788;37.572;2023-05-24T00:12:06;98672.16;;;94.34;4.80
23643;BME280;11998;55.788;37.572;2023-05-24T00:13:07;98654.81;;;92.99;5.20
23643;BME280;11998;55.788;37.572;2023-05-24T00:14:08;98670.41;;;94.31;4.90
23643;BME280;11998;55.788;37.572;2023-05-24T00:15:08;98653.94;;;93.06;4.98
23643;BME280;11998;55.788;37.572;2023-05-24T00:16:09;98674.16;;;94.41;5.06
23643;BME280;11998;55.788;37.572;2023-05-24T00:17:10;98673.59;;;94.74;4.68
23643;BME280;11998;55.788;37.572;2023-05-24T00:18:12;98669.88;;;95.38;4.71
23643;BME280;11998;55.788;37.572;2023-05-24T00:19:12;98672.88;;;95.38;4.90
23643;BME280;11998;55.788;37.572;2023-05-24T00:20:17;98676.03;;;95.61;4.74
23643;BME280;11998;55.788;37.572;2023-05-24T00:21:19;98675.19;;;95.49;4.77
23643;BME280;11998;55.788;37.572;2023-05-24T00:22:20;98671.41;;;93.76;4.77
23643;BME280;11998;55.788;37.572;2023-05-24T00:23:21;98663.41;;;94.38;4.96
23643;BME280;11998;55.788;37.572;2023-05-24T00:24:21;98670.09;;;95.09;4.92
23643;BME280;11998;55.788;37.572;2023-05-24T00:25:22;98662.59;;;94.78;4.82
23643;BME280;11998;55.788;37.572;2023-05-24T00:26:23;98659.03;;;93.91;4.76
23643;BME280;11998;55.788;37.572;2023-05-24T00:27:23;98662.53;;;94.07;5.06
23643;BME280;11998;55.788;37.572;2023-05-24T00:28:24;98651.78;;;93.55;5.02
23643;BME280;11998;55.788;37.572;2023-05-24T00:29:24;98646.13;;;92.30;5.21
23643;BME280;11998;55.788;37.572;2023-05-24T00:30:25;98639.16;;;91.83;5.13
23643;BME280;11998;55.788;37.572;2023-05-24T00:31:26;98641.44;;;91.40;5.33
23643;BME280;11998;55.788;37.572;2023-05-24T00:32:26;98645.31;;;93.68;5.13
23643;BME280;11998;55.788;37.572;2023-05-24T00:33:27;98649.53;;;93.27;5.22
23643;BME280;11998;55.788;37.572;2023-05-24T00:34:28;98648.16;;;94.46;4.79
23643;BME280;11998;55.788;37.572;2023-05-24T00:35:29;98660.75;;;94.73;4.82
23643;BME280;11998;55.788;37.572;2023-05-24T00:36:29;98646.25;;;92.86;5.17
23643;BME280;11998;55.788;37.572;2023-05-24T00:37:30;98655.25;;;94.00;4.84
23643;BME280;11998;55.788;37.572;2023-05-24T00:38:31;98650.94;;;94.63;4.82
23643;BME280;11998;55.788;37.572;2023-05-24T00:39:31;98653.94;;;94.73;4.70
23643;BME280;11998;55.788;37.572;2023-05-24T00:40:32;98655.97;;;95.32;4.69
23643;BME280;11998;55.788;37.572;2023-05-24T00:41:32;98662.84;;;96.11;4.76
23643;BME280;11998;55.788;37.572;2023-05-24T00:42:33;98648.53;;;94.31;4.87
23643;BME280;11998;55.788;37.572;2023-05-24T00:43:33;98656.09;;;95.56;4.70
23643;BME280;11998;55.788;37.572;2023-05-24T00:44:34;98655.25;;;96.10;4.54
23643;BME280;11998;55.788;37.572;2023-05-24T00:45:35;98666.13;;;96.15;4.75
23643;BME280;11998;55.788;37.572;2023-05-24T00:46:36;98667.56;;;97.06;4.43
23643;BME280;11998;55.788;37.572;2023-05-24T00:47:37;98672.56;;;97.38;4.56
23643;BME280;11998;55.788;37.572;2023-05-24T00:48:38;98652.91;;;94.49;4.83
23643;BME280;11998;55.788;37.572;2023-05-24T00:49:39;98653.63;;;95.97;4.61
23643;BME280;11998;55.788;37.572;2023-05-24T00:50:39;98660.03;;;96.36;4.50
23643;BME280;11998;55.788;37.572;2023-05-24T00:51:40;98669.25;;;96.85;4.62
23643;BME280;11998;55.788;37.572;2023-05-24T00:52:41;98663.19;;;96.38;4.44
23643;BME280;11998;55.788;37.572;2023-05-24T00:53:45;98659.97;;;96.13;4.54
23643;BME280;11998;55.788;37.572;2023-05-24T00:54:46;98663.75;;;96.58;4.63
23643;BME280;11998;55.788;37.572;2023-05-24T00:55:46;98668.81;;;96.32;4.74
23643;BME280;11998;55.788;37.572;2023-05-24T00:56:48;98666.13;;;96.71;4.64
23643;BME280;11998;55.788;37.572;2023-05-24T00:57:50;98662.56;;;97.47;4.56
23643;BME280;11998;55.788;37.572;2023-05-24T00:58:51;98672.25;;;98.48;4.22
23643;BME280;11998;55.788;37.572;2023-05-24T00:59:55;98676.13;;;98.89;4.14
23643;BME280;11998;55.788;37.572;2023-05-24T01:01:00;98685.19;;;99.31;4.03
23643;BME280;11998;55.788;37.572;2023-05-24T01:02:01;98680.91;;;99.36;3.90
23643;BME280;11998;55.788;37.572;2023-05-24T01:03:01;98674.63;;;99.32;4.03
23643;BME280;11998;55.788;37.572;2023-05-24T01:04:02;98673.09;;;99.60;3.95
23643;BME280;11998;55.788;37.572;2023-05-24T01:05:05;98665.66;;;99.93;3.86
23643;BME280;11998;55.788;37.572;2023-05-24T01:06:07;98670.28;;;99.50;4.03
23643;BME280;11998;55.788;37.572;2023-05-24T01:10:39;98667.09;;;99.33;3.98
23643;BME280;11998;55.788;37.572;2023-05-24T01:13:42;98654.59;;;99.54;3.86
23643;BME280;11998;55.788;37.572;2023-05-24T01:16:16;98656.91;;;99.85;4.30
23643;BME280;11998;55.788;37.572;2023-05-24T01:17:26;98652.53;;;99.59;3.92
23643;BME280;11998;55.788;37.572;2023-05-24T01:18:33;98654.84;;;99.74;3.86
23643;BME280;11998;55.788;37.572;2023-05-24T01:20:45;98652.13;;;99.96;4.29
23643;BME280;11998;55.788;37.572;2023-05-24T01:23:36;98649.97;;;99.83;3.92
23643;BME280;11998;55.788;37.572;2023-05-24T01:24:58;98644.75;;;100.30;4.05
23643;BME280;11998;55.788;37.572;2023-05-24T01:27:14;98643.50;;;101.36;3.89
23643;BME280;11998;55.788;37.572;2023-05-24T01:28:18;98643.97;;;101.47;3.84
23643;BME280;11998;55.788;37.572;2023-05-24T01:29:21;98642.59;;;101.50;4.00
23643;BME280;11998;55.788;37.572;2023-05-24T01:30:22;98642.84;;;101.56;4.04
23643;BME280;11998;55.788;37.572;2023-05-24T01:31:24;98640.06;;;101.44;3.96
23643;BME280;11998;55.788;37.572;2023-05-24T01:32:25;98647.16;;;101.86;3.90
23643;BME280;11998;55.788;37.572;2023-05-24T01:33:26;98634.16;;;100.63;3.81
23643;BME280;11998;55.788;37.572;2023-05-24T01:34:27;98630.03;;;101.24;3.95
23643;BME280;11998;55.788;37.572;2023-05-24T01:35:28;98636.22;;;101.43;3.94
23643;BME280;11998;55.788;37.572;2023-05-24T01:36:28;98635.19;;;101.55;3.76
23643;BME280;11998;55.788;37.572;2023-05-24T01:37:29;98632.22;;;101.57;4.11
23643;BME280;11998;55.788;37.572;2023-05-24T01:38:30;98627.63;;;101.38;3.97
23643;BME280;11998;55.788;37.572;2023-05-24T01:39:30;98633.72;;;101.56;4.01
23643;BME280;11998;55.788;37.572;2023-05-24T01:40:32;98625.97;;;101.53;3.96
23643;BME280;11998;55.788;37.572;2023-05-24T01:43:13;98628.16;;;101.68;3.79
23643;BME280;11998;55.788;37.572;2023-05-24T01:46:36;98627.91;;;101.62;4.05
23643;BME280;11998;55.788;37.572;2023-05-24T01:49:30;98628.88;;;101.86;3.76
23643;BME280;11998;55.788;37.572;2023-05-24T01:50:47;98629.69;;;101.87;3.83
23643;BME280;11998;55.788;37.572;2023-05-24T01:52:52;98618.88;;;101.28;3.84
23643;BME280;11998;55.788;37.572;2023-05-24T01:53:57;98618.19;;;100.96;3.86
23643;BME280;11998;55.788;37.572;2023-05-24T01:55:00;98624.56;;;101.20;3.75
23643;BME280;11998;55.788;37.572;2023-05-24T01:56:04;98622.91;;;100.83;4.04
23643;BME280;11998;55.788;37.572;2023-05-24T01:57:06;98624.34;;;100.33;3.93
23643;BME280;11998;55.788;37.572;2023-05-24T01:58:08;98616.03;;;100.02;3.81
23643;BME280;11998;55.788;37.572;2023-05-24T01:59:10;98618.88;;;100.45;4.03
23643;BME280;11998;55.788;37.572;2023-05-24T02:00:17;98625.88;;;101.15;3.91
23643;BME280;11998;55.788;37.572;2023-05-24T02:01:18;98624.56;;;101.20;4.02
23643;BME280;11998;55.788;37.572;2023-05-24T02:02:19;98621.88;;;101.10;3.86
23643;BME280;11998;55.788;37.572;2023-05-24T02:03:20;98622.53;;;100.42;3.83
23643;BME280;11998;55.788;37.572;2023-05-24T02:04:21;98622.91;;;100.83;3.76
23643;BME280;11998;55.788;37.572;2023-05-24T02:05:22;98621.53;;;101.20;3.95
23643;BME280;11998;55.788;37.572;2023-05-24T02:06:24;98631.22;;;101.50;3.89
23643;BME280;11998;55.788;37.572;2023-05-24T02:07:25;98632.06;;;101.53;3.78
23643;BME280;11998;55.788;37.572;2023-05-24T02:08:25;98630.81;;;101.60;4.04
23643;BME280;11998;55.788;37.572;2023-05-24T02:09:26;98616.09;;;99.43;4.33
23643;BME280;11998;55.788;37.572;2023-05-24T02:10:27;98626.03;;;100.85;3.84
23643;BME280;11998;55.788;37.572;2023-05-24T02:11:27;98629.19;;;101.39;3.94
23643;BME280;11998;55.788;37.572;2023-05-24T02:12:28;98631.25;;;101.16;3.92
23643;BME280;11998;55.788;37.572;2023-05-24T02:13:29;98623.69;;;101.35;3.80
23643;BME280;11998;55.788;37.572;2023-05-24T02:14:29;98627.59;;;101.20;3.85
23643;BME280;11998;55.788;37.572;2023-05-24T02:15:31;98631.66;;;101.09;3.85
23643;BME280;11998;55.788;37.572;2023-05-24T02:16:31;98633.59;;;101.18;4.07
23643;BME280;11998;55.788;37.572;2023-05-24T02:17:32;98629.72;;;101.00;3.97
23643;BME280;11998;55.788;37.572;2023-05-24T02:18:33;98633.53;;;101.16;3.75
23643;BME280;11998;55.788;37.572;2023-05-24T02:19:33;98614.34;;;101.29;3.84
23643;BME280;11998;55.788;37.572;2023-05-24T02:20:36;98619.81;;;100.81;4.18
23643;BME280;11998;55.788;37.572;2023-05-24T02:21:36;98621.50;;;100.53;4.12
23643;BME280;11998;55.788;37.572;2023-05-24T02:22:37;98614.97;;;99.36;4.48
23643;BME280;11998;55.788;37.572;2023-05-24T02:23:38;98618.16;;;99.24;4.23
23643;BME280;11998;55.788;37.572;2023-05-24T02:24:39;98612.91;;;99.70;4.30
23643;BME280;11998;55.788;37.572;2023-05-24T02:25:39;98606.66;;;99.37;4.44
23643;BME280;11998;55.788;37.572;2023-05-24T02:26:40;98612.28;;;99.42;4.24
23643;BME280;11998;55.788;37.572;2023-05-24T02:27:41;98608.09;;;99.06;3.96
23643;BME280;11998;55.788;37.572;2023-05-24T02:28:46;98609.94;;;99.41;4.08
23643;BME280;11998;55.788;37.572;2023-05-24T02:29:47;98619.38;;;100.40;4.04
23643;BME280;11998;55.788;37.572;2023-05-24T02:30:48;98629.06;;;99.89;4.19
23643;BME280;11998;55.788;37.572;2023-05-24T02:31:48;98607.66;;;97.90;4.34
23643;BME280;11998;55.788;37.572;2023-05-24T02:32:55;98598.69;;;97.92;4.03
23643;BME280;11998;55.788;37.572;2023-05-24T02:33:57;98616.31;;;98.90;4.20
23643;BME280;11998;55.788;37.572;2023-05-24T02:34:58;98614.50;;;99.71;3.95
23643;BME280;11998;55.788;37.572;2023-05-24T02:35:58;98611.44;;;100.17;4.06
23643;BME280;11998;55.788;37.572;2023-05-24T02:36:59;98614.50;;;98.57;4.16
23643;BME280;11998;55.788;37.572;2023-05-24T02:37:59;98615.50;;;99.46;4.17
23643;BME280;11998;55.788;37.572;2023-05-24T02:39:02;98615.84;;;100.45;4.26
23643;BME280;11998;55.788;37.572;2023-05-24T02:40:03;98613.38;;;98.37;4.02
23643;BME280;11998;55.788;37.572;2023-05-24T02:41:04;98606.00;;;98.40;4.15
23643;BME280;11998;55.788;37.572;2023-05-24T02:42:05;98604.44;;;98.66;4.54
23643;BME280;11998;55.788;37.572;2023-05-24T02:43:06;98613.78;;;99.00;4.15
23643;BME280;11998;55.788;37.572;2023-05-24T02:44:08;98606.22;;;98.72;4.47
23643;BME280;11998;55.788;37.572;2023-05-24T02:45:09;98590.19;;;97.26;4.57
23643;BME280;11998;55.788;37.572;2023-05-24T02:46:10;98600.56;;;97.23;4.50
23643;BME280;11998;55.788;37.572;2023-05-24T02:47:11;98592.56;;;97.65;4.42
23643;BME280;11998;55.788;37.572;2023-05-24T02:48:11;98586.19;;;97.10;4.43
23643;BME280;11998;55.788;37.572;2023-05-24T02:49:12;98596.72;;;98.10;4.36
23643;BME280;11998;55.788;37.572;2023-05-24T02:50:13;98603.69;;;99.09;4.25
23643;BME280;11998;55.788;37.572;2023-05-24T02:51:13;98603.41;;;99.03;3.99
23643;BME280;11998;55.788;37.572;2023-05-24T02:52:14;98614.63;;;99.44;4.07
23643;BME280;11998;55.788;37.572;2023-05-24T02:53:15;98602.78;;;99.79;4.20
23643;BME280;11998;55.788;37.572;2023-05-24T02:54:15;98603.72;;;99.68;4.29
23643;BME280;11998;55.788;37.572;2023-05-24T02:55:16;98591.47;;;98.25;4.46
23643;BME280;11998;55.788;37.572;2023-05-24T02:56:17;98591.94;;;98.19;4.57
23643;BME280;11998;55.788;37.572;2023-05-24T02:57:18;98600.94;;;98.58;4.29
23643;BME280;11998;55.788;37.572;2023-05-24T02:58:18;98592.38;;;99.69;4.15
23643;BME280;11998;55.788;37.572;2023-05-24T02:59:19;98601.84;;;99.02;4.22
23643;BME280;11998;55.788;37.572;2023-05-24T03:00:20;98593.81;;;99.09;4.15
23643;BME280;11998;55.788;37.572;2023-05-24T03:01:21;98591.06;;;98.72;4.34
23643;BME280;11998;55.788;37.572;2023-05-24T03:02:22;98584.94;;;96.19;4.66
23643;BME280;11998;55.788;37.572;2023-05-24T03:03:22;98576.84;;;95.22;4.80
23643;BME280;11998;55.788;37.572;2023-05-24T03:04:23;98577.84;;;95.37;4.88
23643;BME280;11998;55.788;37.572;2023-05-24T03:05:24;98591.78;;;96.55;4.50
23643;BME280;11998;55.788;37.572;2023-05-24T03:06:25;98596.59;;;98.08;4.28
23643;BME280;11998;55.788;37.572;2023-05-24T03:07:25;98603.19;;;98.72;4.47
23643;BME280;11998;55.788;37.572;2023-05-24T03:08:26;98599.66;;;99.18;4.01
23643;BME280;11998;55.788;37.572;2023-05-24T03:09:26;98595.50;;;98.98;4.26
23643;BME280;11998;55.788;37.572;2023-05-24T03:10:27;98605.19;;;99.38;4.35
23643;BME280;11998;55.788;37.572;2023-05-24T03:11:27;98608.31;;;100.15;4.01
23643;BME280;11998;55.788;37.572;2023-05-24T03:12:28;98609.19;;;100.17;4.19
23643;BME280;11998;55.788;37.572;2023-05-24T03:13:28;98602.91;;;99.52;4.33
23643;BME280;11998;55.788;37.572;2023-05-24T03:14:29;98590.16;;;98.28;4.10
23643;BME280;11998;55.788;37.572;2023-05-24T03:15:30;98592.84;;;98.63;4.36
23643;BME280;11998;55.788;37.572;2023-05-24T03:16:30;98593.84;;;99.38;4.01
23643;BME280;11998;55.788;37.572;2023-05-24T03:17:32;98606.72;;;99.98;4.11
23643;BME280;11998;55.788;37.572;2023-05-24T03:18:32;98604.88;;;99.91;4.19
23643;BME280;11998;55.788;37.572;2023-05-24T03:19:33;98605.78;;;100.41;4.17
23643;BME280;11998;55.788;37.572;2023-05-24T03:20:33;98608.19;;;100.76;3.94
23643;BME280;11998;55.788;37.572;2023-05-24T03:21:34;98611.38;;;101.31;4.12
23643;BME280;11998;55.788;37.572;2023-05-24T03:22:35;98602.56;;;100.70;4.04
23643;BME280;11998;55.788;37.572;2023-05-24T03:23:35;98595.38;;;100.30;4.15
23643;BME280;11998;55.788;37.572;2023-05-24T03:24:36;98599.56;;;99.46;4.28
23643;BME280;11998;55.788;37.572;2023-05-24T03:25:37;98594.97;;;100.22;4.10
23643;BME280;11998;55.788;37.572;2023-05-24T03:26:40;98590.28;;;98.57;4.27
23643;BME280;11998;55.788;37.572;2023-05-24T03:27:41;98571.81;;;96.61;4.54
23643;BME280;11998;55.788;37.572;2023-05-24T03:28:42;98575.09;;;96.65;4.74
23643;BME280;11998;55.788;37.572;2023-05-24T03:29:43;98568.94;;;95.39;4.75
23643;BME280;11998;55.788;37.572;2023-05-24T03:30:44;98570.09;;;93.10;4.95
23643;BME280;11998;55.788;37.572;2023-05-24T03:31:44;98574.25;;;94.23;4.99
23643;BME280;11998;55.788;37.572;2023-05-24T03:32:45;98574.59;;;94.49;4.84
23643;BME280;11998;55.788;37.572;2023-05-24T03:33:46;98575.41;;;94.18;4.81
23643;BME280;11998;55.788;37.572;2023-05-24T03:34:46;98581.91;;;94.46;4.88
23643;BME280;11998;55.788;37.572;2023-05-24T03:35:47;98580.63;;;96.45;4.59
23643;BME280;11998;55.788;37.572;2023-05-24T03:36:47;98587.84;;;96.52;4.52
23643;BME280;11998;55.788;37.572;2023-05-24T03:37:48;98583.22;;;96.39;4.75
23643;BME280;11998;55.788;37.572;2023-05-24T03:38:48;98583.31;;;95.95;4.72
23643;BME280;11998;55.788;37.572;2023-05-24T03:39:49;98598.50;;;97.14;4.61
23643;BME280;11998;55.788;37.572;2023-05-24T03:40:50;98576.09;;;95.55;4.90
23643;BME280;11998;55.788;37.572;2023-05-24T03:41:50;98591.00;;;96.66;4.69
23643;BME280;11998;55.788;37.572;2023-05-24T03:42:51;98596.72;;;96.85;4.36
23643;BME280;11998;55.788;37.572;2023-05-24T03:43:51;98599.56;;;98.20;4.34
23643;BME280;11998;55.788;37.572;2023-05-24T03:44:52;98604.25;;;99.19;4.32
23643;BME280;11998;55.788;37.572;2023-05-24T03:45:53;98602.81;;;99.95;4.35
23643;BME280;11998;55.788;37.572;2023-05-24T03:46:53;98608.50;;;100.19;4.35
23643;BME280;11998;55.788;37.572;2023-05-24T03:47:54;98611.25;;;100.44;3.99
23643;BME280;11998;55.788;37.572;2023-05-24T03:48:54;98600.25;;;100.53;3.97
23643;BME280;11998;55.788;37.572;2023-05-24T03:49:55;98598.97;;;100.92;3.71
23643;BME280;11998;55.788;37.572;2023-05-24T03:50:56;98597.78;;;100.99;4.04
23643;BME280;11998;55.788;37.572;2023-05-24T03:51:56;98585.91;;;98.60;4.26
23643;BME280;11998;55.788;37.572;2023-05-24T03:52:57;98590.03;;;99.67;4.10
23643;BME280;11998;55.788;37.572;2023-05-24T03:53:58;98595.06;;;100.89;3.94
23643;BME280;11998;55.788;37.572;2023-05-24T03:54:58;98598.94;;;101.25;3.92
23643;BME280;11998;55.788;37.572;2023-05-24T03:55:59;98597.28;;;101.22;3.93
23643;BME280;11998;55.788;37.572;2023-05-24T03:57:00;98590.34;;;101.02;4.19
23643;BME280;11998;55.788;37.572;2023-05-24T03:58:01;98583.97;;;99.67;3.99
23643;BME280;11998;55.788;37.572;2023-05-24T03:59:02;98567.13;;;99.05;4.02
23643;BME280;11998;55.788;37.572;2023-05-24T04:00:03;98566.28;;;98.34;4.50
23643;BME280;11998;55.788;37.572;2023-05-24T04:01:06;98570.66;;;98.58;4.31
23643;BME280;11998;55.788;37.572;2023-05-24T04:02:07;98564.50;;;98.56;4.50
23643;BME280;11998;55.788;37.572;2023-05-24T04:03:08;98572.88;;;99.58;4.02
23643;BME280;11998;55.788;37.572;2023-05-24T04:04:08;98575.25;;;99.60;4.18
23643;BME280;11998;55.788;37.572;2023-05-24T04:05:09;98574.34;;;99.57;3.96
23643;BME280;11998;55.788;37.572;2023-05-24T04:06:10;98574.75;;;99.06;4.29
23643;BME280;11998;55.788;37.572;2023-05-24T04:07:11;98579.84;;;99.61;4.01
23643;BME280;11998;55.788;37.572;2023-05-24T04:08:13;98580.63;;;99.61;4.36
23643;BME280;11998;55.788;37.572;2023-05-24T04:09:14;98575.91;;;99.58;4.27
23643;BME280;11998;55.788;37.572;2023-05-24T04:10:15;98567.63;;;98.58;4.57
23643;BME280;11998;55.788;37.572;2023-05-24T04:11:15;98572.81;;;99.27;4.14
23643;BME280;11998;55.788;37.572;2023-05-24T04:12:16;98576.22;;;100.25;4.08
23643;BME280;11998;55.788;37.572;2023-05-24T04:13:17;98556.44;;;97.94;4.52
23643;BME280;11998;55.788;37.572;2023-05-24T04:14:17;98551.19;;;98.08;4.36
23643;BME280;11998;55.788;37.572;2023-05-24T04:15:18;98568.03;;;99.37;4.47
23643;BME280;11998;55.788;37.572;2023-05-24T04:16:18;98573.38;;;99.09;4.23
23643;BME280;11998;55.788;37.572;2023-05-24T04:17:19;98580.09;;;99.96;4.05
23643;BME280;11998;55.788;37.572;2023-05-24T04:18:23;98571.78;;;99.51;4.38
23643;BME280;11998;55.788;37.572;2023-05-24T04:19:24;98582.03;;;100.53;3.84
23643;BME280;11998;55.788;37.572;2023-05-24T04:20:25;98574.94;;;99.69;4.32
23643;BME280;11998;55.788;37.572;2023-05-24T04:21:26;98574.00;;;99.81;4.02
23643;BME280;11998;55.788;37.572;2023-05-24T04:22:28;98565.38;;;100.22;4.40
23643;BME280;11998;55.788;37.572;2023-05-24T04:23:29;98565.69;;;99.97;4.25
23643;BME280;11998;55.788;37.572;2023-05-24T04:24:30;98576.13;;;100.57;4.19
23643;BME280;11998;55.788;37.572;2023-05-24T04:25:30;98572.25;;;100.39;4.07
23643;BME280;11998;55.788;37.572;2023-05-24T04:26:33;98577.00;;;101.44;3.89
23643;BME280;11998;55.788;37.572;2023-05-24T04:27:33;98581.88;;;101.89;4.01
23643;BME280;11998;55.788;37.572;2023-05-24T04:28:35;98556.25;;;97.65;4.38
23643;BME280;11998;55.788;37.572;2023-05-24T04:29:40;98546.56;;;95.86;4.87
23643;BME280;11998;55.788;37.572;2023-05-24T04:30:41;98565.16;;;98.68;4.47
23643;BME280;11998;55.788;37.572;2023-05-24T04:31:42;98571.31;;;100.68;4.10
23643;BME280;11998;55.788;37.572;2023-05-24T04:32:43;98576.25;;;100.59;4.03
23643;BME280;11998;55.788;37.572;2023-05-24T04:33:44;98561.66;;;100.40;4.23
23643;BME280;11998;55.788;37.572;2023-05-24T04:34:47;98582.94;;;102.16;3.93
23643;BME280;11998;55.788;37.572;2023-05-24T04:35:47;98568.22;;;101.90;4.03
23643;BME280;11998;55.788;37.572;2023-05-24T04:36:48;98568.88;;;102.26;3.89
23643;BME280;11998;55.788;37.572;2023-05-24T04:37:51;98571.06;;;102.24;3.69
23643;BME280;11998;55.788;37.572;2023-05-24T04:38:51;98579.19;;;102.37;3.96
23643;BME280;11998;55.788;37.572;2023-05-24T04:39:56;98564.13;;;101.28;4.13
23643;BME280;11998;55.788;37.572;2023-05-24T04:40:57;98567.28;;;102.45;3.69
23643;BME280;11998;55.788;37.572;2023-05-24T04:41:58;98580.78;;;102.80;3.97
23643;BME280;11998;55.788;37.572;2023-05-24T04:42:59;98570.63;;;102.95;3.82
23643;BME280;11998;55.788;37.572;2023-05-24T04:44:00;98577.41;;;103.14;4.01
23643;BME280;11998;55.788;37.572;2023-05-24T04:45:01;98576.44;;;102.65;3.81
23643;BME280;11998;55.788;37.572;2023-05-24T04:46:02;98574.75;;;102.82;3.91
23643;BME280;11998;55.788;37.572;2023-05-24T04:47:03;98575.31;;;102.56;4.00
23643;BME280;11998;55.788;37.572;2023-05-24T04:48:03;98571.91;;;102.88;4.01
23643;BME280;11998;55.788;37.572;2023-05-24T04:49:04;98574.59;;;103.22;3.80
23643;BME280;11998;55.788;37.572;2023-05-24T04:50:05;98582.47;;;103.51;3.43
23643;BME280;11998;55.788;37.572;2023-05-24T04:51:06;98565.66;;;102.03;3.69
23643;BME280;11998;55.788;37.572;2023-05-24T04:52:06;98567.28;;;102.45;3.64
23643;BME280;11998;55.788;37.572;2023-05-24T04:53:07;98567.44;;;102.91;3.87
23643;BME280;11998;55.788;37.572;2023-05-24T04:54:07;98571.25;;;103.35;3.69
23643;BME280;11998;55.788;37.572;2023-05-24T04:55:08;98574.56;;;103.65;3.50
23643;BME280;11998;55.788;37.572;2023-05-24T04:56:09;98574.16;;;103.09;3.84
23643;BME280;11998;55.788;37.572;2023-05-24T04:57:14;98575.03;;;103.34;3.64
23643;BME280;11998;55.788;37.572;2023-05-24T04:58:15;98573.84;;;102.57;3.89
23643;BME280;11998;55.788;37.572;2023-05-24T04:59:16;98572.34;;;101.99;3.93
23643;BME280;11998;55.788;37.572;2023-05-24T05:00:17;98575.91;;;102.31;3.67
23643;BME280;11998;55.788;37.572;2023-05-24T05:01:17;98569.25;;;102.17;3.68
23643;BME280;11998;55.788;37.572;2023-05-24T05:02:18;98570.03;;;102.79;3.93
23643;BME280;11998;55.788;37.572;2023-05-24T05:03:19;98574.16;;;103.09;3.94
23643;BME280;11998;55.788;37.572;2023-05-24T05:04:19;98572.47;;;103.48;3.69
23643;BME280;11998;55.788;37.572;2023-05-24T05:05:20;98578.81;;;103.56;3.95
23643;BME280;11998;55.788;37.572;2023-05-24T05:06:21;98575.28;;;103.42;3.85
23643;BME280;11998;55.788;37.572;2023-05-24T05:07:22;98585.59;;;104.01;3.99
23643;BME280;11998;55.788;37.572;2023-05-24T05:08:22;98586.19;;;104.21;3.22
23643;BME280;11998;55.788;37.572;2023-05-24T05:09:23;98587.31;;;104.34;3.61
23643;BME280;11998;55.788;37.572;2023-05-24T05:10:24;98591.84;;;104.85;3.70
23643;BME280;11998;55.788;37.572;2023-05-24T05:11:25;98596.38;;;105.44;3.41
23643;BME280;11998;55.788;37.572;2023-05-24T05:12:27;98590.59;;;105.90;3.54
23643;BME280;11998;55.788;37.572;2023-05-24T05:13:27;98585.75;;;106.13;3.27
23643;BME280;11998;55.788;37.572;2023-05-24T05:14:28;98586.81;;;106.68;3.41
23643;BME280;11998;55.788;37.572;2023-05-24T05:15:28;98587.44;;;107.03;3.39
23643;BME280;11998;55.788;37.572;2023-05-24T05:16:29;98579.22;;;107.15;3.40
23643;BME280;11998;55.788;37.572;2023-05-24T05:17:31;98591.03;;;107.33;3.74
23643;BME280;11998;55.788;37.572;2023-05-24T05:18:31;98577.38;;;107.44;3.26
23643;BME280;11998;55.788;37.572;2023-05-24T05:19:33;98583.44;;;107.40;3.35
23643;BME280;11998;55.788;37.572;2023-05-24T05:20:33;98576.00;;;107.56;3.30
23643;BME280;11998;55.788;37.572;2023-05-24T05:21:34;98562.19;;;107.54;3.08
23643;BME280;11998;55.788;37.572;2023-05-24T05:22:35;98561.31;;;106.97;3.45
23643;BME280;11998;55.788;37.572;2023-05-24T05:23:36;98569.59;;;107.92;3.24
23643;BME280;11998;55.788;37.572;2023-05-24T05:24:38;98564.66;;;108.29;3.53
23643;BME280;11998;55.788;37.572;2023-05-24T05:25:39;98574.31;;;108.72;3.09
23643;BME280;11998;55.788;37.572;2023-05-24T05:26:40;98562.50;;;108.44;3.47
23643;BME280;11998;55.788;37.572;2023-05-24T05:27:41;98556.63;;;107.95;3.10
23643;BME280;11998;55.788;37.572;2023-05-24T05:28:41;98545.00;;;105.06;3.30
23643;BME280;11998;55.788;37.572;2023-05-24T05:29:42;98543.13;;;104.93;3.25
23643;BME280;11998;55.788;37.572;2023-05-24T05:30:42;98540.81;;;103.14;3.51
23643;BME280;11998;55.788;37.572;2023-05-24T05:31:43;98537.25;;;103.45;3.90
23643;BME280;11998;55.788;37.572;2023-05-24T05:32:43;98547.38;;;103.28;3.90
23643;BME280;11998;55.788;37.572;2023-05-24T05:33:44;98544.38;;;103.30;3.96
23643;BME280;11998;55.788;37.572;2023-05-24T05:34:45;98553.25;;;104.71;3.35
23643;BME280;11998;55.788;37.572;2023-05-24T05:35:45;98562.59;;;105.38;3.60
23643;BME280;11998;55.788;37.572;2023-05-24T05:36:46;98564.59;;;104.97;3.39
23643;BME280;11998;55.788;37.572;2023-05-24T05:37:46;98564.69;;;106.31;3.32
23643;BME280;11998;55.788;37.572;2023-05-24T05:38:47;98568.22;;;105.81;3.58
23643;BME280;11998;55.788;37.572;2023-05-24T05:39:48;98549.66;;;103.05;3.52
23643;BME280;11998;55.788;37.572;2023-05-24T05:40:48;98557.81;;;103.66;3.90